Capitol Logistics 428


KIAD
Washington Dulles International Airport
Dulles, Virginia, US
KPWM
Portland International Jetport
Portland, Maine, US

Activity Log

Date Flight Route Aircraft Duration
08/08/2019 CPX428 JCOBY3 SWANN BROSS J42 RBV LGA BDR SCOGS3 B752 1h 23m
12/03/2018 CPX528 JCOBY3 SWANN BROSS J42 RBV LGA BDR SCOGS3 B752 1h 14m
03/28/2018 CPX528 JCOBY3 SWANN BROSS J42 RBV LGA BDR SCOGS3 B752 1h 11m

Route Details

Aircraft Information
Primary: Boeing 737-800BCF
Backup: Not Available
Route Data
Distance: 429nm
Sched. Duration: 1h 35m
Avg. Duration: 1h 16m (-19m)
Times Flown: 3
Recm'd Route: JCOBY3 SWANN BROSS J42 RBV LGA BDR SCOGS3
Planned Altitude: 37,000ft
Origin Wx: KIAD 271752Z 00000KT 10SM OVC026 17/09 A3019 RMK AO2 SLP222 T01670094 10167 20144 58007
Dest. Wx: KPWM 271751Z 34007KT 10SM SCT033 12/03 A3011 RMK AO2 SLP195 T01220033 10122 20078 58014
Notes: LOBSTER KING

Financial History
Total Freight: 102,758lbs
Average Load: 34,253lbs/flt
Fuel Used: 29,248lbs
Avg. Fuel Used: 9,749lbs/flt
Fuel Expense: $37,713
Avg. Fuel Expense: $12,571
Avg. Fuel Cost: $1.27/lbs
Total Gross Income: $127,420
Pilot Pay: $287
Total Expenses: $14,323
Total Revenue: $74,498
Average Revenue: $42,473.30